sensor_id;sensor_type;location;lat;lon;timestamp;pressure;altitude;pressure_sealevel;temperature;humidity
36304;BME280;22335;49.800;8.596;2024-01-30T00:05:53;101909.75;;;7.43;58.45
36304;BME280;22335;49.800;8.596;2024-01-30T00:12:38;101854.06;;;7.08;58.49
36304;BME280;22335;49.800;8.596;2024-01-30T00:19:22;101914.22;;;7.37;58.05
36304;BME280;22335;49.800;8.596;2024-01-30T00:26:06;101919.59;;;7.25;57.56
36304;BME280;22335;49.800;8.596;2024-01-30T00:32:49;101919.00;;;7.23;57.47
36304;BME280;22335;49.800;8.596;2024-01-30T00:39:34;101929.34;;;7.14;58.63
36304;BME280;22335;49.800;8.596;2024-01-30T00:46:18;101886.03;;;6.95;57.66
36304;BME280;22335;49.800;8.596;2024-01-30T00:53:01;101925.63;;;7.09;57.94
36304;BME280;22335;49.800;8.596;2024-01-30T00:59:46;101916.09;;;7.00;57.72
36304;BME280;22335;49.800;8.596;2024-01-30T01:06:30;101902.00;;;6.84;58.41
36304;BME280;22335;49.800;8.596;2024-01-30T01:13:13;101926.50;;;6.84;58.12
36304;BME280;22335;49.800;8.596;2024-01-30T01:19:58;101926.34;;;6.79;58.28
36304;BME280;22335;49.800;8.596;2024-01-30T01:26:41;101913.25;;;6.69;57.43
36304;BME280;22335;49.800;8.596;2024-01-30T01:33:25;101925.06;;;6.82;57.58
36304;BME280;22335;49.800;8.596;2024-01-30T01:40:11;101906.38;;;6.67;58.31
36304;BME280;22335;49.800;8.596;2024-01-30T01:46:54;101884.31;;;6.57;58.86
36304;BME280;22335;49.800;8.596;2024-01-30T01:53:38;101882.03;;;6.54;58.16
36304;BME280;22335;49.800;8.596;2024-01-30T02:00:23;101902.22;;;6.64;58.37
36304;BME280;22335;49.800;8.596;2024-01-30T02:07:07;101867.38;;;6.30;57.95
36304;BME280;22335;49.800;8.596;2024-01-30T02:13:50;101908.81;;;6.50;58.34
36304;BME280;22335;49.800;8.596;2024-01-30T02:20:37;101920.19;;;6.40;58.43
36304;BME280;22335;49.800;8.596;2024-01-30T02:27:22;101888.31;;;6.29;58.41
36304;BME280;22335;49.800;8.596;2024-01-30T02:34:06;101918.41;;;6.53;58.58
36304;BME280;22335;49.800;8.596;2024-01-30T02:40:49;101872.81;;;6.30;58.23
36304;BME280;22335;49.800;8.596;2024-01-30T02:47:34;101915.94;;;6.51;58.68
36304;BME280;22335;49.800;8.596;2024-01-30T02:54:18;101914.69;;;6.47;58.38
36304;BME280;22335;49.800;8.596;2024-01-30T03:01:02;101909.25;;;6.47;58.28
36304;BME280;22335;49.800;8.596;2024-01-30T03:07:47;101831.28;;;5.91;58.42
36304;BME280;22335;49.800;8.596;2024-01-30T03:14:30;101909.19;;;6.29;58.55
36304;BME280;22335;49.800;8.596;2024-01-30T03:21:14;101908.78;;;6.25;58.33
36304;BME280;22335;49.800;8.596;2024-01-30T03:27:59;101896.28;;;6.24;58.80
36304;BME280;22335;49.800;8.596;2024-01-30T03:34:43;101900.88;;;6.23;58.27
36304;BME280;22335;49.800;8.596;2024-01-30T03:41:27;101893.38;;;6.19;58.54
36304;BME280;22335;49.800;8.596;2024-01-30T04:03:15;101902.28;;;6.01;58.17
36304;BME280;22335;49.800;8.596;2024-01-30T04:09:58;101811.06;;;5.55;58.36
36304;BME280;22335;49.800;8.596;2024-01-30T04:16:42;101869.00;;;5.74;58.12
36304;BME280;22335;49.800;8.596;2024-01-30T04:23:27;101901.66;;;5.99;58.38
36304;BME280;22335;49.800;8.596;2024-01-30T04:30:11;101902.44;;;6.06;58.37
36304;BME280;22335;49.800;8.596;2024-01-30T04:36:56;101886.38;;;6.05;58.63
36304;BME280;22335;49.800;8.596;2024-01-30T04:43:41;101893.53;;;5.92;58.66
36304;BME280;22335;49.800;8.596;2024-01-30T04:50:25;101899.81;;;5.93;58.69
36304;BME280;22335;49.800;8.596;2024-01-30T04:57:09;101902.53;;;5.93;58.51
36304;BME280;22335;49.800;8.596;2024-01-30T05:03:55;101907.31;;;5.91;58.70
36304;BME280;22335;49.800;8.596;2024-01-30T05:10:38;101904.00;;;5.89;58.45
36304;BME280;22335;49.800;8.596;2024-01-30T05:17:22;101913.19;;;5.88;58.52
36304;BME280;22335;49.800;8.596;2024-01-30T05:24:07;101922.63;;;5.78;58.88
36304;BME280;22335;49.800;8.596;2024-01-30T05:30:51;101913.69;;;5.71;58.52
36304;BME280;22335;49.800;8.596;2024-01-30T05:37:35;101914.09;;;5.75;58.97
36304;BME280;22335;49.800;8.596;2024-01-30T05:44:20;101920.78;;;5.72;58.88
36304;BME280;22335;49.800;8.596;2024-01-30T05:51:04;101887.06;;;5.55;58.77
36304;BME280;22335;49.800;8.596;2024-01-30T05:57:50;101920.09;;;5.84;58.77
36304;BME280;22335;49.800;8.596;2024-01-30T06:04:35;101927.66;;;5.75;58.91
36304;BME280;22335;49.800;8.596;2024-01-30T06:11:19;101810.69;;;5.06;58.95
36304;BME280;22335;49.800;8.596;2024-01-30T06:18:03;101926.41;;;5.77;58.69
36304;BME280;22335;49.800;8.596;2024-01-30T06:24:48;101915.97;;;5.74;58.59
36304;BME280;22335;49.800;8.596;2024-01-30T06:31:32;101921.22;;;5.69;58.64
36304;BME280;22335;49.800;8.596;2024-01-30T06:38:15;101914.38;;;5.60;59.06
36304;BME280;22335;49.800;8.596;2024-01-30T06:45:01;101914.56;;;5.65;59.00
36304;BME280;22335;49.800;8.596;2024-01-30T06:51:44;101914.53;;;5.72;58.69
36304;BME280;22335;49.800;8.596;2024-01-30T06:58:28;101892.00;;;5.65;59.04
36304;BME280;22335;49.800;8.596;2024-01-30T07:05:13;101933.50;;;5.78;58.90
36304;BME280;22335;49.800;8.596;2024-01-30T07:11:57;101891.22;;;5.58;59.03
36304;BME280;22335;49.800;8.596;2024-01-30T07:18:40;101894.50;;;5.66;59.06
36304;BME280;22335;49.800;8.596;2024-01-30T07:25:25;101920.88;;;5.91;59.03
36304;BME280;22335;49.800;8.596;2024-01-30T07:32:10;101922.97;;;6.02;59.02
36304;BME280;22335;49.800;8.596;2024-01-30T07:38:54;101927.09;;;6.11;59.19
36304;BME280;22335;49.800;8.596;2024-01-30T07:45:38;101929.75;;;6.18;58.92
36304;BME280;22335;49.800;8.596;2024-01-30T07:52:22;101934.69;;;6.28;59.13
36304;BME280;22335;49.800;8.596;2024-01-30T07:59:09;101940.31;;;6.33;58.84
36304;BME280;22335;49.800;8.596;2024-01-30T08:05:54;101948.19;;;6.41;59.12
36304;BME280;22335;49.800;8.596;2024-01-30T08:12:37;101955.88;;;6.51;59.36
36304;BME280;22335;49.800;8.596;2024-01-30T08:19:21;101955.97;;;6.62;59.40
36304;BME280;22335;49.800;8.596;2024-01-30T08:26:06;101956.91;;;6.75;58.66
36304;BME280;22335;49.800;8.596;2024-01-30T08:32:49;101955.38;;;6.85;58.68
36304;BME280;22335;49.800;8.596;2024-01-30T08:39:33;101957.78;;;6.93;58.85
36304;BME280;22335;49.800;8.596;2024-01-30T08:46:18;101949.13;;;7.03;59.26
36304;BME280;22335;49.800;8.596;2024-01-30T08:53:02;101945.22;;;7.18;59.08
36304;BME280;22335;49.800;8.596;2024-01-30T08:59:46;101949.28;;;7.27;59.45
36304;BME280;22335;49.800;8.596;2024-01-30T09:06:31;101946.88;;;7.37;59.55
36304;BME280;22335;49.800;8.596;2024-01-30T09:13:15;101909.84;;;7.18;59.79
36304;BME280;22335;49.800;8.596;2024-01-30T09:19:58;101961.25;;;7.62;60.14
36304;BME280;22335;49.800;8.596;2024-01-30T09:26:43;101958.81;;;7.73;59.80
36304;BME280;22335;49.800;8.596;2024-01-30T09:33:26;101964.91;;;7.86;59.87
36304;BME280;22335;49.800;8.596;2024-01-30T09:40:10;101951.34;;;7.98;59.86
36304;BME280;22335;49.800;8.596;2024-01-30T09:46:55;101958.56;;;8.23;60.18
36304;BME280;22335;49.800;8.596;2024-01-30T09:53:40;101929.78;;;8.27;60.61
36304;BME280;22335;49.800;8.596;2024-01-30T10:00:24;101968.56;;;8.71;60.86
36304;BME280;22335;49.800;8.596;2024-01-30T10:07:12;101962.38;;;8.87;60.44
36304;BME280;22335;49.800;8.596;2024-01-30T10:13:56;101953.63;;;9.09;60.82
36304;BME280;22335;49.800;8.596;2024-01-30T10:20:39;101963.09;;;9.30;60.27
36304;BME280;22335;49.800;8.596;2024-01-30T10:27:25;101963.19;;;9.46;60.78
36304;BME280;22335;49.800;8.596;2024-01-30T10:34:11;101949.16;;;9.66;60.60
36304;BME280;22335;49.800;8.596;2024-01-30T10:40:58;101958.22;;;9.84;60.63
36304;BME280;22335;49.800;8.596;2024-01-30T10:47:45;101948.34;;;9.95;60.45
36304;BME280;22335;49.800;8.596;2024-01-30T10:54:33;101944.22;;;10.09;60.65
36304;BME280;22335;49.800;8.596;2024-01-30T11:01:18;101936.44;;;10.18;60.81
36304;BME280;22335;49.800;8.596;2024-01-30T11:08:12;101932.91;;;10.17;60.72
36304;BME280;22335;49.800;8.596;2024-01-30T11:15:03;101948.44;;;10.28;61.06
36304;BME280;22335;49.800;8.596;2024-01-30T11:21:47;101957.09;;;10.54;60.46
36304;BME280;22335;49.800;8.596;2024-01-30T11:28:37;101959.34;;;10.57;60.74
36304;BME280;22335;49.800;8.596;2024-01-30T11:35:21;101937.88;;;10.66;61.25
36304;BME280;22335;49.800;8.596;2024-01-30T11:42:07;101931.91;;;10.69;61.15
36304;BME280;22335;49.800;8.596;2024-01-30T11:48:53;101910.25;;;10.67;61.01
36304;BME280;22335;49.800;8.596;2024-01-30T11:55:37;101908.91;;;10.70;61.03
36304;BME280;22335;49.800;8.596;2024-01-30T12:02:20;101889.59;;;10.76;61.12
36304;BME280;22335;49.800;8.596;2024-01-30T12:09:05;101886.34;;;10.79;61.04
36304;BME280;22335;49.800;8.596;2024-01-30T12:15:50;101860.25;;;10.72;60.96
36304;BME280;22335;49.800;8.596;2024-01-30T12:22:36;101886.97;;;11.03;60.97
36304;BME280;22335;49.800;8.596;2024-01-30T12:29:22;101883.66;;;11.23;60.64
36304;BME280;22335;49.800;8.596;2024-01-30T12:36:06;101828.19;;;11.11;60.74
36304;BME280;22335;49.800;8.596;2024-01-30T12:42:51;101857.09;;;11.24;60.27
36304;BME280;22335;49.800;8.596;2024-01-30T12:49:36;101853.22;;;11.20;60.33
36304;BME280;22335;49.800;8.596;2024-01-30T12:56:20;101887.09;;;11.36;60.14
36304;BME280;22335;49.800;8.596;2024-01-30T13:03:04;101839.97;;;11.12;60.07
36304;BME280;22335;49.800;8.596;2024-01-30T13:09:49;101883.63;;;11.40;60.09
36304;BME280;22335;49.800;8.596;2024-01-30T13:16:33;101878.56;;;11.54;60.21
36304;BME280;22335;49.800;8.596;2024-01-30T13:23:18;101875.38;;;11.62;60.06
36304;BME280;22335;49.800;8.596;2024-01-30T13:30:03;101826.91;;;11.41;59.88
36304;BME280;22335;49.800;8.596;2024-01-30T13:36:48;101862.38;;;11.74;59.64
36304;BME280;22335;49.800;8.596;2024-01-30T13:43:32;101859.03;;;11.72;59.66
36304;BME280;22335;49.800;8.596;2024-01-30T13:50:17;101848.59;;;11.69;59.58
36304;BME280;22335;49.800;8.596;2024-01-30T13:57:01;101840.28;;;11.59;59.51
36304;BME280;22335;49.800;8.596;2024-01-30T14:03:45;101851.84;;;11.66;59.77
36304;BME280;22335;49.800;8.596;2024-01-30T14:10:29;101847.47;;;11.65;59.41
36304;BME280;22335;49.800;8.596;2024-01-30T14:17:13;101843.13;;;11.69;59.54
36304;BME280;22335;49.800;8.596;2024-01-30T14:23:56;101850.56;;;11.74;59.60
36304;BME280;22335;49.800;8.596;2024-01-30T14:30:41;101852.28;;;11.80;59.61
36304;BME280;22335;49.800;8.596;2024-01-30T14:37:25;101871.84;;;11.89;59.49
36304;BME280;22335;49.800;8.596;2024-01-30T14:44:10;101878.00;;;12.01;59.32
36304;BME280;22335;49.800;8.596;2024-01-30T14:50:56;101877.59;;;12.14;59.33
36304;BME280;22335;49.800;8.596;2024-01-30T14:57:40;101879.69;;;12.34;59.22
36304;BME280;22335;49.800;8.596;2024-01-30T15:04:26;101849.44;;;12.24;58.91
36304;BME280;22335;49.800;8.596;2024-01-30T15:11:11;101868.69;;;12.34;59.22
36304;BME280;22335;49.800;8.596;2024-01-30T15:17:55;101864.00;;;12.30;59.10
36304;BME280;22335;49.800;8.596;2024-01-30T15:24:39;101872.72;;;12.21;59.17
36304;BME280;22335;49.800;8.596;2024-01-30T15:31:24;101867.09;;;12.06;59.19
36304;BME280;22335;49.800;8.596;2024-01-30T15:38:08;101880.28;;;12.09;59.30
36304;BME280;22335;49.800;8.596;2024-01-30T15:44:51;101883.03;;;12.09;59.42
36304;BME280;22335;49.800;8.596;2024-01-30T15:51:36;101891.84;;;12.16;59.40
36304;BME280;22335;49.800;8.596;2024-01-30T15:58:19;101893.00;;;12.20;59.02
36304;BME280;22335;49.800;8.596;2024-01-30T16:05:03;101897.97;;;12.23;59.26
36304;BME280;22335;49.800;8.596;2024-01-30T16:11:50;101914.22;;;12.30;58.91
36304;BME280;22335;49.800;8.596;2024-01-30T16:18:34;101910.97;;;12.38;59.25
36304;BME280;22335;49.800;8.596;2024-01-30T16:25:17;101907.94;;;12.35;58.96
36304;BME280;22335;49.800;8.596;2024-01-30T16:32:02;101894.38;;;12.23;59.32
36304;BME280;22335;49.800;8.596;2024-01-30T16:38:46;101920.06;;;12.39;59.11
36304;BME280;22335;49.800;8.596;2024-01-30T16:45:30;101926.63;;;12.38;59.50
36304;BME280;22335;49.800;8.596;2024-01-30T16:52:14;101925.78;;;12.37;59.26
36304;BME280;22335;49.800;8.596;2024-01-30T16:58:59;101939.00;;;12.40;59.69
36304;BME280;22335;49.800;8.596;2024-01-30T17:05:42;101890.22;;;12.15;59.42
36304;BME280;22335;49.800;8.596;2024-01-30T17:12:27;101954.13;;;12.43;59.75
36304;BME280;22335;49.800;8.596;2024-01-30T17:19:13;101965.03;;;12.38;59.91
36304;BME280;22335;49.800;8.596;2024-01-30T17:25:57;101972.38;;;12.32;59.87
36304;BME280;22335;49.800;8.596;2024-01-30T17:32:42;101972.03;;;12.23;60.15
36304;BME280;22335;49.800;8.596;2024-01-30T17:39:25;101994.75;;;12.19;60.23
36304;BME280;22335;49.800;8.596;2024-01-30T17:46:09;102001.25;;;12.13;60.67
36304;BME280;22335;49.800;8.596;2024-01-30T17:52:53;102011.66;;;12.11;60.54
36304;BME280;22335;49.800;8.596;2024-01-30T17:59:38;102027.03;;;12.12;60.49
36304;BME280;22335;49.800;8.596;2024-01-30T18:06:22;102032.53;;;12.12;60.78
36304;BME280;22335;49.800;8.596;2024-01-30T18:13:07;102036.03;;;12.07;60.73
36304;BME280;22335;49.800;8.596;2024-01-30T18:19:50;102044.25;;;12.07;61.02
36304;BME280;22335;49.800;8.596;2024-01-30T18:26:33;102023.81;;;11.93;60.96
36304;BME280;22335;49.800;8.596;2024-01-30T18:33:19;102057.91;;;12.24;60.80
36304;BME280;22335;49.800;8.596;2024-01-30T18:40:03;102052.94;;;12.21;60.73
36304;BME280;22335;49.800;8.596;2024-01-30T18:46:48;102060.34;;;12.20;60.85
36304;BME280;22335;49.800;8.596;2024-01-30T18:53:33;102058.72;;;12.25;60.97
36304;BME280;22335;49.800;8.596;2024-01-30T19:00:17;102059.88;;;12.29;60.88
36304;BME280;22335;49.800;8.596;2024-01-30T19:07:01;102063.94;;;12.26;60.98
36304;BME280;22335;49.800;8.596;2024-01-30T19:13:46;102071.66;;;12.29;61.03
36304;BME280;22335;49.800;8.596;2024-01-30T19:20:30;102052.94;;;12.21;60.88
36304;BME280;22335;49.800;8.596;2024-01-30T19:27:14;102090.03;;;12.51;60.69
36304;BME280;22335;49.800;8.596;2024-01-30T19:33:58;102091.19;;;12.55;60.64
36304;BME280;22335;49.800;8.596;2024-01-30T19:40:42;102096.59;;;12.50;61.16
36304;BME280;22335;49.800;8.596;2024-01-30T19:47:26;102105.97;;;12.54;60.89
36304;BME280;22335;49.800;8.596;2024-01-30T19:54:12;102111.78;;;12.57;61.08
36304;BME280;22335;49.800;8.596;2024-01-30T20:00:58;102066.00;;;12.36;60.73
36304;BME280;22335;49.800;8.596;2024-01-30T20:07:43;102098.13;;;12.62;60.95
36304;BME280;22335;49.800;8.596;2024-01-30T20:14:29;102100.47;;;12.54;61.58
36304;BME280;22335;49.800;8.596;2024-01-30T20:21:12;102075.56;;;12.33;61.54
36304;BME280;22335;49.800;8.596;2024-01-30T20:27:56;102123.31;;;12.54;61.38
36304;BME280;22335;49.800;8.596;2024-01-30T20:34:43;102121.63;;;12.53;61.70
36304;BME280;22335;49.800;8.596;2024-01-30T20:41:26;102119.38;;;12.50;61.55
36304;BME280;22335;49.800;8.596;2024-01-30T20:48:09;102111.44;;;12.49;61.85
36304;BME280;22335;49.800;8.596;2024-01-30T20:54:54;102114.47;;;12.52;61.82
36304;BME280;22335;49.800;8.596;2024-01-30T21:01:38;102051.53;;;12.18;62.43
36304;BME280;22335;49.800;8.596;2024-01-30T21:08:22;102084.13;;;12.37;62.49
36304;BME280;22335;49.800;8.596;2024-01-30T21:15:08;102092.34;;;12.37;62.80
36304;BME280;22335;49.800;8.596;2024-01-30T21:21:52;102091.56;;;12.41;62.64
36304;BME280;22335;49.800;8.596;2024-01-30T21:28:35;102082.25;;;12.42;62.89
36304;BME280;22335;49.800;8.596;2024-01-30T21:35:20;102079.56;;;12.48;63.06
36304;BME280;22335;49.800;8.596;2024-01-30T21:42:04;102043.78;;;12.37;62.96
36304;BME280;22335;49.800;8.596;2024-01-30T21:48:47;102084.88;;;12.54;63.30
36304;BME280;22335;49.800;8.596;2024-01-30T21:55:32;102093.22;;;12.64;62.91
36304;BME280;22335;49.800;8.596;2024-01-30T22:02:16;102098.56;;;12.76;62.77
36304;BME280;22335;49.800;8.596;2024-01-30T22:08:59;102095.31;;;12.84;62.78
36304;BME280;22335;49.800;8.596;2024-01-30T22:15:44;102087.34;;;12.83;62.50
36304;BME280;22335;49.800;8.596;2024-01-30T22:22:28;102094.44;;;12.79;62.63
36304;BME280;22335;49.800;8.596;2024-01-30T22:29:11;102095.81;;;12.76;62.75
36304;BME280;22335;49.800;8.596;2024-01-30T22:35:56;102111.78;;;12.84;62.57
36304;BME280;22335;49.800;8.596;2024-01-30T22:42:41;102109.63;;;12.86;62.74
36304;BME280;22335;49.800;8.596;2024-01-30T22:49:24;102112.63;;;12.85;62.47
36304;BME280;22335;49.800;8.596;2024-01-30T22:56:10;102068.66;;;12.53;62.46
36304;BME280;22335;49.800;8.596;2024-01-30T23:02:54;102080.50;;;12.58;62.32
36304;BME280;22335;49.800;8.596;2024-01-30T23:09:38;102098.94;;;12.63;62.58
36304;BME280;22335;49.800;8.596;2024-01-30T23:16:24;102128.84;;;12.86;62.53
36304;BME280;22335;49.800;8.596;2024-01-30T23:23:08;102091.00;;;12.66;62.17
36304;BME280;22335;49.800;8.596;2024-01-30T23:29:52;102130.50;;;12.87;62.74
36304;BME280;22335;49.800;8.596;2024-01-30T23:36:40;102149.47;;;12.89;62.28
36304;BME280;22335;49.800;8.596;2024-01-30T23:43:24;102137.19;;;12.97;62.23
36304;BME280;22335;49.800;8.596;2024-01-30T23:50:09;102107.66;;;12.82;62.40
36304;BME280;22335;49.800;8.596;2024-01-30T23:56:57;102154.81;;;13.01;62.33
